aviador You're here:

NFNA Decoded Metar

NAUSORI in FIJI
Report Time2018-01-17 09:00:00
UTC Time2018-01-17 09:14:48
Flight Rules vfr VFR
WindCalm
Visibility9999 m
Phenomena:N/A
Clouds:Few 020 Hf
Scattered 050 Hf
Broken 280 Hf
Expected CloudBase > 800 ft AGL from Temp-Dew spread
Ceiling28,000 ft
Temp26°C (ISA +11)
Dew Point24°C (89% RH)
QNH1013 hPa
Density Alt1,683 ft
Elevation16 ft
Report Wrong Elevation
Raw Report
NFNA 170900Z 00000KT 9999 FEW020 SCT050 BKN280 26/24 Q1013=

Extra information for NFNA:More info

Metar Taf Metar & Taf Last 4 Metars F.Rules Stats Wind Profile Meteogram Temp Stats Airport Information Weather charts Add Link Nearby VenuesMetar ALERT Operation Metar Decoded Social comments